Time;durP1;ratioP1;P1;durP2;ratioP2;P2;SDS_P1;SDS_P2;PMS_P1;PMS_P2;Temp;Humidity;BMP_temperature;BMP_pressure;BME280_temperature;BME280_humidity;BME280_pressure;Samples;Min_cycle;Max_cycle;Signal;HPM_P1;HPM_P2
2022/08/01 00:00:31;;;;;;;1.65;1.40;;;;;;;;;;4970349;28;20498;-64
2022/08/01 00:02:57;;;;;;;2.13;1.30;;;;;;;;;;4970321;28;20364;-64
2022/08/01 00:05:22;;;;;;;2.92;1.30;;;;;;;;;;4970666;28;20460;-64
2022/08/01 00:07:48;;;;;;;2.75;1.02;;;;;;;;;;4970186;28;20102;-64
2022/08/01 00:10:15;;;;;;;1.75;1.10;;;;;;;;;;4969017;28;20115;-64
2022/08/01 00:12:40;;;;;;;1.80;1.10;;;;;;;;;;4971222;28;20388;-63
2022/08/01 00:15:08;;;;;;;2.55;1.30;;;;;;;;;;4970315;28;20318;-64
2022/08/01 00:17:33;;;;;;;2.95;1.15;;;;;;;;;;4970165;28;20352;-64
2022/08/01 00:19:58;;;;;;;2.47;1.48;;;;;;;;;;4970231;28;20025;-64
2022/08/01 00:22:24;;;;;;;3.17;1.40;;;;;;;;;;4970152;28;20489;-65
2022/08/01 00:24:49;;;;;;;1.70;1.33;;;;;;;;;;4970189;28;20446;-63
2022/08/01 00:27:15;;;;;;;1.70;1.10;;;;;;;;;;4970042;28;20378;-64
2022/08/01 00:29:40;;;;;;;1.80;1.25;;;;;;;;;;4970283;28;20440;-64
2022/08/01 00:32:06;;;;;;;1.63;1.23;;;;;;;;;;4969829;28;20502;-65
2022/08/01 00:34:31;;;;;;;1.98;1.45;;;;;;;;;;4971069;28;20571;-64
2022/08/01 00:36:56;;;;;;;2.33;1.40;;;;;;;;;;4969994;28;20025;-64
2022/08/01 00:39:22;;;;;;;2.47;1.60;;;;;;;;;;4970577;28;20436;-64
2022/08/01 00:41:47;;;;;;;1.60;1.10;;;;;;;;;;4971389;28;20423;-66
2022/08/01 00:44:12;;;;;;;1.80;1.33;;;;;;;;;;4969527;28;20440;-68
2022/08/01 00:46:38;;;;;;;1.73;1.25;;;;;;;;;;4969751;28;20351;-64
2022/08/01 00:49:03;;;;;;;2.90;1.50;;;;;;;;;;4970150;28;20321;-64
2022/08/01 00:51:29;;;;;;;2.03;1.45;;;;;;;;;;4952181;28;20038;-64
2022/08/01 00:53:54;;;;;;;1.83;1.38;;;;;;;;;;4969659;28;20383;-64
2022/08/01 00:56:21;;;;;;;1.73;1.40;;;;;;;;;;4969669;28;20571;-64
2022/08/01 00:58:47;;;;;;;3.03;1.85;;;;;;;;;;4969652;28;20409;-64
2022/08/01 01:01:13;;;;;;;2.22;1.48;;;;;;;;;;4964498;28;20099;-64
2022/08/01 01:03:38;;;;;;;2.05;1.40;;;;;;;;;;4961754;28;20072;-63
2022/08/01 01:06:13;;;;;;;2.22;1.50;;;;;;;;;;4970118;28;20029;-64
2022/08/01 01:09:03;;;;;;;1.73;1.52;;;;;;;;;;4969248;28;20060;-64
2022/08/01 01:11:33;;;;;;;3.20;1.40;;;;;;;;;;4969153;28;20340;-64
2022/08/01 01:14:04;;;;;;;2.15;1.73;;;;;;;;;;4951726;28;20413;-63
2022/08/01 01:16:30;;;;;;;8.50;1.60;;;;;;;;;;4971179;28;20034;-64
2022/08/01 01:18:58;;;;;;;1.85;1.10;;;;;;;;;;4951876;28;20528;-64
2022/08/01 01:21:40;;;;;;;3.08;1.60;;;;;;;;;;4970161;28;20108;-64
2022/08/01 01:24:26;;;;;;;2.65;1.60;;;;;;;;;;4951853;28;20522;-64
2022/08/01 01:26:53;;;;;;;1.88;1.35;;;;;;;;;;4969220;28;20517;-63
2022/08/01 01:29:43;;;;;;;1.85;1.60;;;;;;;;;;4969350;28;20420;-64
2022/08/01 01:32:11;;;;;;;2.40;1.70;;;;;;;;;;4948614;28;20340;-64
2022/08/01 01:34:38;;;;;;;2.25;1.73;;;;;;;;;;4969492;28;20675;-64
2022/08/01 01:37:06;;;;;;;2.10;1.50;;;;;;;;;;4969114;28;20360;-64
2022/08/01 01:39:32;;;;;;;2.08;1.70;;;;;;;;;;4969111;28;20375;-64
2022/08/01 01:41:58;;;;;;;1.83;1.50;;;;;;;;;;4971736;28;20103;-64
2022/08/01 01:44:25;;;;;;;2.45;1.58;;;;;;;;;;4963710;28;20441;-64
2022/08/01 01:46:51;;;;;;;1.52;1.23;;;;;;;;;;4974827;28;20084;-64
2022/08/01 01:49:20;;;;;;;2.55;1.85;;;;;;;;;;4971472;28;20112;-63
2022/08/01 01:51:45;;;;;;;;;;;;;;;;;;4972159;28;20426;-64
2022/08/01 01:54:11;;;;;;;3.30;1.67;;;;;;;;;;4971350;28;20217;-64
2022/08/01 01:56:48;;;;;;;2.15;1.63;;;;;;;;;;4973064;28;20376;-64
2022/08/01 01:59:16;;;;;;;3.28;1.63;;;;;;;;;;4972967;28;20566;-64
2022/08/01 02:01:42;;;;;;;1.75;1.42;;;;;;;;;;4973287;28;20286;-64
2022/08/01 02:04:07;;;;;;;3.17;1.80;;;;;;;;;;4972170;28;20456;-64
2022/08/01 02:06:33;;;;;;;6.68;1.80;;;;;;;;;;4971211;28;20065;-65
2022/08/01 02:09:00;;;;;;;2.65;1.92;;;;;;;;;;4973171;28;20617;-64
2022/08/01 02:11:26;;;;;;;2.53;1.83;;;;;;;;;;4971768;28;20450;-64
2022/08/01 02:13:58;;;;;;;2.50;1.77;;;;;;;;;;4972798;28;20433;-64
2022/08/01 02:16:26;;;;;;;3.33;1.70;;;;;;;;;;4971584;28;20409;-63
2022/08/01 02:18:51;;;;;;;3.08;2.42;;;;;;;;;;4970765;28;20543;-64
2022/08/01 02:21:28;;;;;;;1.92;1.45;;;;;;;;;;4972473;28;20511;-63
2022/08/01 02:23:56;;;;;;;2.15;1.70;;;;;;;;;;4970809;28;20498;-64
2022/08/01 02:26:22;;;;;;;3.17;1.52;;;;;;;;;;4971147;28;20037;-64
2022/08/01 02:28:51;;;;;;;1.90;1.58;;;;;;;;;;4973083;28;20398;-64
2022/08/01 02:31:19;;;;;;;2.20;1.85;;;;;;;;;;4971623;28;20442;-64
2022/08/01 02:33:52;;;;;;;2.75;1.75;;;;;;;;;;4970690;28;20340;-63
2022/08/01 02:36:18;;;;;;;2.22;1.85;;;;;;;;;;4970963;28;20413;-64
2022/08/01 02:38:46;;;;;;;2.67;2.00;;;;;;;;;;4970743;28;20456;-63
2022/08/01 02:41:14;;;;;;;2.37;1.73;;;;;;;;;;4971991;28;20119;-63
2022/08/01 02:43:43;;;;;;;2.17;1.65;;;;;;;;;;4970221;28;20774;-64
2022/08/01 02:46:12;;;;;;;2.40;1.88;;;;;;;;;;4970357;28;20060;-63
2022/08/01 02:48:38;;;;;;;3.38;1.90;;;;;;;;;;4970703;28;20436;-64
2022/08/01 02:51:04;;;;;;;2.88;1.90;;;;;;;;;;4970299;28;20361;-63
2022/08/01 02:53:36;;;;;;;2.45;2.00;;;;;;;;;;5002916;28;20374;-63
2022/08/01 02:56:03;;;;;;;3.67;2.05;;;;;;;;;;4971819;28;20383;-63
2022/08/01 02:58:29;;;;;;;2.00;1.80;;;;;;;;;;4954187;28;20425;-63
2022/08/01 03:00:55;;;;;;;2.50;2.00;;;;;;;;;;4971005;28;20332;-63
2022/08/01 03:03:20;;;;;;;2.58;1.70;;;;;;;;;;4970199;28;20567;-63
2022/08/01 03:05:48;;;;;;;3.80;1.95;;;;;;;;;;4972355;28;20459;-64
2022/08/01 03:08:14;;;;;;;3.35;2.10;;;;;;;;;;5003117;28;20452;-67
2022/08/01 03:10:43;;;;;;;2.30;1.90;;;;;;;;;;4971323;28;20336;-64
2022/08/01 03:13:09;;;;;;;3.83;2.20;;;;;;;;;;4970072;28;20033;-64
2022/08/01 03:15:37;;;;;;;4.97;2.10;;;;;;;;;;5003098;28;20405;-63
2022/08/01 03:18:05;;;;;;;2.10;1.88;;;;;;;;;;4971487;28;20429;-64
2022/08/01 03:20:32;;;;;;;3.05;2.38;;;;;;;;;;5003042;28;20045;-64
2022/08/01 03:23:00;;;;;;;2.28;2.08;;;;;;;;;;4972348;28;20029;-63
2022/08/01 03:25:25;;;;;;;3.60;2.47;;;;;;;;;;4970182;28;20436;-64
2022/08/01 03:27:55;;;;;;;2.88;2.03;;;;;;;;;;4969711;28;20456;-64
2022/08/01 03:30:23;;;;;;;3.17;2.10;;;;;;;;;;4970410;28;20456;-64
2022/08/01 03:32:48;;;;;;;2.15;1.83;;;;;;;;;;4969946;28;20456;-64
2022/08/01 03:35:14;;;;;;;3.40;2.25;;;;;;;;;;4971523;28;20453;-63
2022/08/01 03:37:48;;;;;;;3.35;2.58;;;;;;;;;;4971163;28;20444;-63
2022/08/01 03:40:19;;;;;;;2.70;2.20;;;;;;;;;;4969444;28;20329;-63
2022/08/01 03:42:47;;;;;;;5.50;2.45;;;;;;;;;;4970995;28;20475;-63
2022/08/01 03:45:23;;;;;;;4.10;2.57;;;;;;;;;;4970864;28;20410;-63
2022/08/01 03:47:52;;;;;;;3.75;2.03;;;;;;;;;;4970873;28;20569;-64
2022/08/01 03:50:20;;;;;;;3.42;2.20;;;;;;;;;;4969561;28;20525;-63
2022/08/01 03:52:46;;;;;;;2.83;2.20;;;;;;;;;;4971291;28;20360;-63
2022/08/01 03:55:12;;;;;;;3.47;2.30;;;;;;;;;;4887960;28;20114;-63
2022/08/01 03:57:39;;;;;;;2.60;2.08;;;;;;;;;;4957118;28;20371;-64
2022/08/01 04:00:08;;;;;;;3.30;2.35;;;;;;;;;;4970529;28;20433;-63
2022/08/01 04:02:33;;;;;;;3.30;2.38;;;;;;;;;;4970485;28;20021;-66
2022/08/01 04:04:59;;;;;;;4.13;2.38;;;;;;;;;;4970444;28;20397;-63
2022/08/01 04:07:32;;;;;;;2.92;2.30;;;;;;;;;;4970092;28;20501;-64
2022/08/01 04:09:57;;;;;;;4.30;2.40;;;;;;;;;;4971058;28;20320;-64
2022/08/01 04:12:23;;;;;;;3.00;2.15;;;;;;;;;;4970033;28;20364;-63
2022/08/01 04:14:49;;;;;;;3.53;2.45;;;;;;;;;;4970669;28;20347;-64
2022/08/01 04:17:15;;;;;;;3.05;2.17;;;;;;;;;;4967842;28;20368;-64
2022/08/01 04:19:41;;;;;;;2.88;2.10;;;;;;;;;;4970340;28;20372;-63
2022/08/01 04:22:08;;;;;;;4.40;2.63;;;;;;;;;;4971263;28;20419;-63
2022/08/01 04:24:35;;;;;;;3.25;2.20;;;;;;;;;;4952554;28;20414;-63
2022/08/01 04:27:01;;;;;;;4.28;3.00;;;;;;;;;;4952992;28;20562;-64
2022/08/01 04:29:28;;;;;;;3.67;2.92;;;;;;;;;;4970502;28;20048;-65
2022/08/01 04:31:56;;;;;;;3.15;2.15;;;;;;;;;;4952293;28;20108;-63
2022/08/01 04:34:24;;;;;;;3.33;2.23;;;;;;;;;;4971840;28;20436;-63
2022/08/01 04:36:51;;;;;;;3.33;2.40;;;;;;;;;;4952020;28;20364;-64
2022/08/01 04:39:18;;;;;;;4.07;2.17;;;;;;;;;;4952040;28;20088;-63
2022/08/01 04:41:44;;;;;;;3.80;2.28;;;;;;;;;;4951887;28;20344;-63
2022/08/01 04:44:10;;;;;;;3.70;2.55;;;;;;;;;;4969663;28;20399;-64
2022/08/01 04:46:36;;;;;;;3.33;2.30;;;;;;;;;;4969728;28;20391;-63
2022/08/01 04:49:04;;;;;;;2.72;2.40;;;;;;;;;;4952445;28;20563;-63
2022/08/01 04:51:29;;;;;;;4.53;2.37;;;;;;;;;;4970320;28;20029;-63
2022/08/01 04:53:57;;;;;;;3.33;2.28;;;;;;;;;;4969477;28;20471;-63
2022/08/01 04:56:22;;;;;;;3.67;2.88;;;;;;;;;;4969679;28;20021;-63
2022/08/01 04:58:48;;;;;;;3.90;2.53;;;;;;;;;;4969401;28;20056;-63
2022/08/01 05:01:13;;;;;;;2.58;2.17;;;;;;;;;;4969557;28;20484;-63
2022/08/01 05:03:39;;;;;;;3.97;2.50;;;;;;;;;;4969614;28;20127;-65
2022/08/01 05:06:05;;;;;;;3.17;2.30;;;;;;;;;;4969455;28;20033;-63
2022/08/01 05:08:30;;;;;;;3.20;2.42;;;;;;;;;;4969473;28;20088;-63
2022/08/01 05:10:56;;;;;;;3.33;2.47;;;;;;;;;;4969123;28;20444;-63
2022/08/01 05:13:21;;;;;;;3.58;2.63;;;;;;;;;;4969925;28;20388;-63
2022/08/01 05:15:46;;;;;;;3.45;2.40;;;;;;;;;;4968734;28;20501;-63
2022/08/01 05:18:13;;;;;;;2.85;2.38;;;;;;;;;;4970222;28;20403;-65
2022/08/01 05:20:38;;;;;;;4.22;2.70;;;;;;;;;;4969404;28;20510;-63
2022/08/01 05:23:04;;;;;;;4.60;2.55;;;;;;;;;;4969317;28;20425;-63
2022/08/01 05:25:30;;;;;;;3.90;2.75;;;;;;;;;;4970874;28;20040;-63
2022/08/01 05:27:55;;;;;;;4.38;3.05;;;;;;;;;;4969185;28;20433;-63
2022/08/01 05:30:21;;;;;;;3.20;2.60;;;;;;;;;;4969310;28;20029;-66
2022/08/01 05:32:46;;;;;;;5.97;2.60;;;;;;;;;;4969022;28;20533;-63
2022/08/01 05:35:11;;;;;;;4.47;3.10;;;;;;;;;;4969287;28;20490;-63
2022/08/01 05:37:37;;;;;;;4.53;3.08;;;;;;;;;;4969060;28;20500;-63
2022/08/01 05:40:03;;;;;;;6.00;3.40;;;;;;;;;;4969115;28;20359;-63
2022/08/01 05:42:28;;;;;;;4.30;3.30;;;;;;;;;;4969208;28;20064;-63
2022/08/01 05:44:54;;;;;;;4.60;3.40;;;;;;;;;;4969533;28;20456;-63
2022/08/01 05:47:19;;;;;;;6.95;3.92;;;;;;;;;;4969401;28;20142;-63
2022/08/01 05:49:45;;;;;;;5.72;3.38;;;;;;;;;;4968961;28;20329;-63
2022/08/01 05:52:11;;;;;;;5.60;3.63;;;;;;;;;;4968927;28;20499;-63
2022/08/01 05:54:36;;;;;;;5.20;3.33;;;;;;;;;;4968894;28;20479;-63
2022/08/01 05:57:02;;;;;;;5.32;3.35;;;;;;;;;;4969365;28;20582;-63
2022/08/01 05:59:29;;;;;;;5.65;3.67;;;;;;;;;;4969111;28;20030;-62
2022/08/01 06:01:54;;;;;;;6.30;3.90;;;;;;;;;;4968524;28;20344;-63
2022/08/01 06:04:19;;;;;;;5.90;3.75;;;;;;;;;;4969679;28;20037;-63
2022/08/01 06:06:45;;;;;;;8.32;4.25;;;;;;;;;;4969183;28;20324;-63
2022/08/01 06:09:10;;;;;;;5.78;3.85;;;;;;;;;;4969004;28;20439;-63
2022/08/01 06:11:35;;;;;;;6.55;4.03;;;;;;;;;;4970897;28;20309;-63
2022/08/01 06:14:01;;;;;;;7.15;4.22;;;;;;;;;;4969107;28;20029;-63
2022/08/01 06:16:26;;;;;;;7.25;4.43;;;;;;;;;;4969062;28;20471;-63
2022/08/01 06:18:52;;;;;;;9.00;4.30;;;;;;;;;;4968840;28;20053;-62
2022/08/01 06:21:17;;;;;;;7.68;4.22;;;;;;;;;;4969408;28;20383;-63
2022/08/01 06:23:43;;;;;;;7.75;4.47;;;;;;;;;;4968723;28;20336;-63
2022/08/01 06:26:08;;;;;;;8.07;4.45;;;;;;;;;;4968595;28;20029;-64
2022/08/01 06:28:34;;;;;;;8.32;4.63;;;;;;;;;;4954094;28;20399;-63
2022/08/01 06:30:59;;;;;;;7.28;4.65;;;;;;;;;;4971898;28;20475;-62
2022/08/01 06:33:26;;;;;;;7.18;4.65;;;;;;;;;;4972331;28;20502;-62
2022/08/01 06:35:52;;;;;;;5.95;4.18;;;;;;;;;;4971869;28;20475;-62
2022/08/01 06:38:18;;;;;;;7.28;4.78;;;;;;;;;;4972606;28;20324;-62
2022/08/01 06:40:43;;;;;;;8.00;4.82;;;;;;;;;;4972404;28;20379;-62
2022/08/01 06:43:11;;;;;;;6.85;4.38;;;;;;;;;;4971890;28;20440;-62
2022/08/01 06:45:36;;;;;;;9.13;4.60;;;;;;;;;;4972292;28;20025;-62
2022/08/01 06:48:02;;;;;;;7.63;4.85;;;;;;;;;;4971790;28;20057;-62
2022/08/01 06:50:27;;;;;;;7.50;4.53;;;;;;;;;;4971737;28;20336;-63
2022/08/01 06:52:52;;;;;;;8.13;5.25;;;;;;;;;;4971790;28;20425;-62
2022/08/01 06:55:19;;;;;;;8.20;4.47;;;;;;;;;;4972620;28;20445;-62
2022/08/01 06:57:49;;;;;;;10.30;4.75;;;;;;;;;;4972489;28;20392;-64
2022/08/01 07:00:18;;;;;;;7.35;4.40;;;;;;;;;;4971827;28;20341;-62
2022/08/01 07:02:44;;;;;;;8.38;4.57;;;;;;;;;;4972618;28;20041;-62
2022/08/01 07:05:09;;;;;;;12.02;5.22;;;;;;;;;;4971675;28;20457;-61
2022/08/01 07:07:35;;;;;;;11.50;4.68;;;;;;;;;;4971045;28;20456;-61
2022/08/01 07:10:00;;;;;;;8.52;4.80;;;;;;;;;;4971951;28;20325;-61
2022/08/01 07:12:26;;;;;;;8.43;4.97;;;;;;;;;;4971399;28;20423;-62
2022/08/01 07:14:51;;;;;;;6.82;4.68;;;;;;;;;;4972328;28;20480;-61
2022/08/01 07:17:16;;;;;;;7.40;5.35;;;;;;;;;;4972255;28;20336;-61
2022/08/01 07:19:42;;;;;;;12.15;4.60;;;;;;;;;;4971738;28;20369;-61
2022/08/01 07:22:07;;;;;;;7.70;4.93;;;;;;;;;;4971400;28;20433;-63
2022/08/01 07:24:33;;;;;;;6.80;4.60;;;;;;;;;;4971450;28;20436;-61
2022/08/01 07:26:58;;;;;;;8.13;5.13;;;;;;;;;;4971241;28;20428;-61
2022/08/01 07:29:24;;;;;;;8.65;4.43;;;;;;;;;;4971295;28;20507;-62
2022/08/01 07:31:51;;;;;;;8.10;4.72;;;;;;;;;;4971011;28;20033;-62
2022/08/01 07:34:16;;;;;;;6.78;4.45;;;;;;;;;;4971306;28;20030;-61
2022/08/01 07:36:42;;;;;;;7.43;4.38;;;;;;;;;;4971123;28;20052;-61
2022/08/01 07:39:07;;;;;;;8.20;4.78;;;;;;;;;;4970361;28;20344;-61
2022/08/01 07:41:32;;;;;;;8.90;4.65;;;;;;;;;;4970371;28;20425;-61
2022/08/01 07:43:58;;;;;;;5.82;4.07;;;;;;;;;;4970526;28;20460;-62
2022/08/01 07:46:23;;;;;;;9.75;4.35;;;;;;;;;;4970573;28;20410;-61
2022/08/01 07:48:49;;;;;;;7.22;4.20;;;;;;;;;;4971030;28;20321;-61
2022/08/01 07:51:14;;;;;;;5.95;4.20;;;;;;;;;;4970654;28;20392;-65
2022/08/01 07:53:39;;;;;;;6.72;3.78;;;;;;;;;;4970562;28;20433;-61
2022/08/01 07:56:06;;;;;;;9.48;4.18;;;;;;;;;;4970856;28;20456;-62
2022/08/01 07:58:31;;;;;;;6.20;4.53;;;;;;;;;;4970711;28;20497;-62
2022/08/01 08:00:58;;;;;;;6.93;3.65;;;;;;;;;;4971125;28;20428;-61
2022/08/01 08:03:23;;;;;;;5.65;4.43;;;;;;;;;;4970399;28;20345;-62
2022/08/01 08:05:49;;;;;;;7.15;4.10;;;;;;;;;;4970526;28;20029;-61
2022/08/01 08:08:15;;;;;;;6.78;4.28;;;;;;;;;;4971740;28;20455;-61
2022/08/01 08:10:41;;;;;;;7.60;4.05;;;;;;;;;;4970535;28;20379;-61
2022/08/01 08:13:06;;;;;;;6.72;4.22;;;;;;;;;;4970508;28;20065;-61
2022/08/01 08:15:32;;;;;;;8.43;4.70;;;;;;;;;;4970737;28;20332;-61
2022/08/01 08:17:57;;;;;;;5.22;3.58;;;;;;;;;;4970413;28;20444;-61
2022/08/01 08:20:24;;;;;;;5.93;4.07;;;;;;;;;;4971383;28;20338;-61
2022/08/01 08:22:53;;;;;;;5.68;3.25;;;;;;;;;;4969882;28;20467;-60
2022/08/01 08:25:19;;;;;;;4.95;3.40;;;;;;;;;;4970126;28;20437;-63
2022/08/01 08:27:45;;;;;;;7.68;3.83;;;;;;;;;;4969885;28;20421;-63
2022/08/01 08:30:12;;;;;;;5.82;3.58;;;;;;;;;;4971163;28;20059;-62
2022/08/01 08:32:37;;;;;;;5.13;3.65;;;;;;;;;;4969849;28;20372;-62
2022/08/01 08:35:04;;;;;;;6.50;3.72;;;;;;;;;;4970658;28;20368;-60
2022/08/01 08:37:29;;;;;;;6.53;4.35;;;;;;;;;;4970781;28;20369;-61
2022/08/01 08:39:55;;;;;;;6.82;3.80;;;;;;;;;;4969850;28;20408;-61
2022/08/01 08:42:20;;;;;;;8.10;3.97;;;;;;;;;;4969758;28;20119;-61
2022/08/01 08:44:46;;;;;;;5.55;3.10;;;;;;;;;;4946875;28;20372;-63
2022/08/01 08:47:13;;;;;;;4.88;3.40;;;;;;;;;;4969681;28;20543;-61
2022/08/01 08:49:38;;;;;;;6.88;4.10;;;;;;;;;;4969962;28;20029;-62
2022/08/01 08:52:04;;;;;;;6.28;3.53;;;;;;;;;;4968073;28;20423;-61
2022/08/01 08:54:30;;;;;;;5.72;3.80;;;;;;;;;;4969132;28;20444;-61
2022/08/01 08:56:56;;;;;;;5.30;3.63;;;;;;;;;;4969567;28;20450;-61
2022/08/01 08:59:24;;;;;;;4.32;2.92;;;;;;;;;;4968056;28;20424;-61
2022/08/01 09:01:50;;;;;;;7.93;3.47;;;;;;;;;;4969313;28;20416;-61
2022/08/01 09:04:15;;;;;;;4.65;3.20;;;;;;;;;;4969652;28;20448;-62
2022/08/01 09:06:41;;;;;;;5.93;3.33;;;;;;;;;;4970008;28;20033;-61
2022/08/01 09:09:08;;;;;;;6.25;3.97;;;;;;;;;;4969686;28;20403;-61
2022/08/01 09:11:34;;;;;;;5.30;3.10;;;;;;;;;;4969543;28;20356;-61
2022/08/01 09:14:12;;;;;;;4.95;3.22;;;;;;;;;;4969322;28;20029;-61
2022/08/01 09:16:42;;;;;;;4.70;2.83;;;;;;;;;;4969782;28;20403;-61
2022/08/01 09:19:16;;;;;;;5.13;3.20;;;;;;;;;;4969711;28;20502;-61
2022/08/01 09:21:57;;;;;;;5.53;3.25;;;;;;;;;;4971423;28;20026;-61
2022/08/01 09:24:22;;;;;;;5.78;3.05;;;;;;;;;;4970281;28;20444;-62
2022/08/01 09:26:49;;;;;;;6.25;3.03;;;;;;;;;;4969169;28;20432;-61
2022/08/01 09:29:21;;;;;;;4.80;2.78;;;;;;;;;;4968972;28;20380;-61
2022/08/01 09:31:46;;;;;;;5.88;3.30;;;;;;;;;;4970590;28;20456;-61
2022/08/01 09:34:12;;;;;;;4.07;3.22;;;;;;;;;;4968998;28;20471;-61
2022/08/01 09:36:55;;;;;;;4.65;3.10;;;;;;;;;;4969058;28;20387;-62
2022/08/01 09:39:29;;;;;;;6.50;3.13;;;;;;;;;;4969502;28;20363;-61
2022/08/01 09:41:57;;;;;;;4.53;2.70;;;;;;;;;;4969080;28;20463;-61
2022/08/01 09:44:42;;;;;;;13.13;3.13;;;;;;;;;;4969064;28;20068;-61
2022/08/01 09:47:08;;;;;;;4.68;3.08;;;;;;;;;;4969862;28;20498;-62
2022/08/01 09:49:38;;;;;;;4.43;2.97;;;;;;;;;;4951133;28;20459;-61
2022/08/01 09:52:17;;;;;;;4.15;2.80;;;;;;;;;;4968959;28;20417;-61
2022/08/01 09:55:01;;;;;;;4.03;2.75;;;;;;;;;;4969940;28;20571;-61
2022/08/01 09:57:28;;;;;;;4.80;2.65;;;;;;;;;;4969736;28;20424;-61
2022/08/01 09:59:55;;;;;;;4.80;2.58;;;;;;;;;;4969850;28;20336;-61
2022/08/01 10:02:28;;;;;;;5.68;3.30;;;;;;;;;;4969930;28;20317;-61
2022/08/01 10:04:54;;;;;;;6.45;3.42;;;;;;;;;;4972988;28;20030;-62
2022/08/01 10:07:20;;;;;;;4.10;2.85;;;;;;;;;;4972923;28;20436;-61
2022/08/01 10:09:46;;;;;;;4.32;2.45;;;;;;;;;;4972562;28;20462;-62
2022/08/01 10:12:18;;;;;;;3.75;2.42;;;;;;;;;;4973913;28;20334;-63
2022/08/01 10:14:46;;;;;;;5.05;2.78;;;;;;;;;;4972553;28;20431;-61
2022/08/01 10:17:14;;;;;;;3.92;2.90;;;;;;;;;;4972184;28;20317;-61
2022/08/01 10:19:41;;;;;;;3.40;2.47;;;;;;;;;;4972605;28;20363;-61
2022/08/01 10:22:15;;;;;;;5.18;2.70;;;;;;;;;;4972065;28;20327;-62
2022/08/01 10:24:42;;;;;;;3.80;2.67;;;;;;;;;;4972756;28;20029;-61
2022/08/01 10:27:10;;;;;;;3.85;2.60;;;;;;;;;;4972744;28;20056;-61
2022/08/01 10:30:07;;;;;;;4.78;3.25;;;;;;;;;;4972325;28;20336;-61
2022/08/01 10:32:34;;;;;;;3.95;2.70;;;;;;;;;;4972103;28;20110;-61
2022/08/01 10:35:00;;;;;;;4.18;2.50;;;;;;;;;;4972258;28;20475;-62
2022/08/01 10:37:27;;;;;;;4.78;2.72;;;;;;;;;;4972429;28;20451;-62
2022/08/01 10:39:53;;;;;;;4.72;2.33;;;;;;;;;;4972587;28;20022;-62
2022/08/01 10:42:19;;;;;;;6.65;2.55;;;;;;;;;;4972809;28;20502;-62
2022/08/01 10:44:48;;;;;;;3.17;2.33;;;;;;;;;;4971882;28;20519;-61
2022/08/01 10:47:17;;;;;;;4.05;2.53;;;;;;;;;;4971810;28;20479;-61
2022/08/01 10:50:07;;;;;;;3.60;2.70;;;;;;;;;;4971886;28;20079;-62
2022/08/01 10:52:32;;;;;;;4.80;2.40;;;;;;;;;;4972324;28;20424;-62
2022/08/01 10:55:05;;;;;;;4.97;2.60;;;;;;;;;;4953847;28;20380;-61
2022/08/01 10:57:47;;;;;;;3.85;2.50;;;;;;;;;;4973214;28;20432;-63
2022/08/01 11:00:20;;;;;;;4.13;2.30;;;;;;;;;;4972588;28;20468;-61
2022/08/01 11:03:04;;;;;;;3.80;2.33;;;;;;;;;;4971698;28;20448;-62
2022/08/01 11:05:34;;;;;;;4.07;2.08;;;;;;;;;;4971612;28;20439;-62
2022/08/01 11:08:11;;;;;;;4.47;2.63;;;;;;;;;;4971858;28;20364;-62
2022/08/01 11:10:42;;;;;;;3.97;2.47;;;;;;;;;;4953974;28;20029;-61
2022/08/01 11:13:09;;;;;;;6.30;2.67;;;;;;;;;;4971422;28;20398;-62
2022/08/01 11:15:35;;;;;;;3.50;2.05;;;;;;;;;;4954786;28;20115;-63
2022/08/01 11:18:03;;;;;;;4.05;2.40;;;;;;;;;;4954028;28;20506;-62
2022/08/01 11:20:32;;;;;;;4.10;2.30;;;;;;;;;;4971237;28;20344;-61
2022/08/01 11:23:01;;;;;;;3.90;2.47;;;;;;;;;;4954345;28;20033;-61
2022/08/01 11:25:27;;;;;;;;;;;;;;;;;;4972816;28;20452;-62
2022/08/01 11:28:23;;;;;;;3.28;2.25;;;;;;;;;;4972428;28;20221;-61
2022/08/01 11:30:54;;;;;;;4.30;2.53;;;;;;;;;;4968485;28;20440;-61
2022/08/01 11:33:40;;;;;;;3.72;1.98;;;;;;;;;;4971332;28;20052;-62
2022/08/01 11:36:15;;;;;;;3.53;2.50;;;;;;;;;;4963724;28;20338;-62
2022/08/01 11:39:10;;;;;;;3.33;2.13;;;;;;;;;;4972161;28;20314;-61
2022/08/01 11:41:36;;;;;;;3.70;2.33;;;;;;;;;;4971571;28;20355;-61
2022/08/01 11:44:15;;;;;;;3.92;2.28;;;;;;;;;;4978519;28;20376;-61
2022/08/01 11:46:49;;;;;;;2.70;2.00;;;;;;;;;;4818079;28;5002338;-63
2022/08/01 11:49:27;;;;;;;3.45;2.22;;;;;;;;;;4645808;28;10000593;-62
2022/08/01 11:52:19;;;;;;;3.30;1.83;;;;;;;;;;4990381;28;20605;-62
2022/08/01 11:54:52;;;;;;;3.22;2.00;;;;;;;;;;4985771;28;20206;-61
2022/08/01 11:57:19;;;;;;;2.78;2.03;;;;;;;;;;4990111;28;20436;-61
2022/08/01 11:59:48;;;;;;;2.92;2.22;;;;;;;;;;4990727;28;20025;-62
2022/08/01 12:02:20;;;;;;;2.95;2.15;;;;;;;;;;4991677;28;20372;-62
2022/08/01 12:04:55;;;;;;;4.03;2.20;;;;;;;;;;4991828;28;20468;-61
2022/08/01 12:07:21;;;;;;;4.18;2.42;;;;;;;;;;4991350;28;20055;-61
2022/08/01 12:09:47;;;;;;;2.45;1.70;;;;;;;;;;4990141;28;20336;-62
2022/08/01 12:12:17;;;;;;;2.90;2.05;;;;;;;;;;4991311;28;20029;-61
2022/08/01 12:14:43;;;;;;;2.70;1.98;;;;;;;;;;4972262;28;20036;-62
2022/08/01 12:17:08;;;;;;;3.03;1.88;;;;;;;;;;4990701;28;20363;-62
2022/08/01 12:19:36;;;;;;;3.97;2.20;;;;;;;;;;4989976;28;20375;-61
2022/08/01 12:22:23;;;;;;;3.20;2.10;;;;;;;;;;4988312;28;20466;-62
2022/08/01 12:24:49;;;;;;;2.77;2.10;;;;;;;;;;4989054;28;20354;-61
2022/08/01 12:27:24;;;;;;;3.08;2.05;;;;;;;;;;4990110;28;20029;-61
2022/08/01 12:29:50;;;;;;;4.22;2.20;;;;;;;;;;4990541;28;20329;-62
2022/08/01 12:32:30;;;;;;;2.92;1.85;;;;;;;;;;4989654;28;20395;-62
2022/08/01 12:35:00;;;;;;;3.28;1.80;;;;;;;;;;4990337;28;20372;-62
2022/08/01 12:37:26;;;;;;;3.25;1.95;;;;;;;;;;4988291;28;20325;-62
2022/08/01 12:39:51;;;;;;;4.63;2.40;;;;;;;;;;4972905;28;20337;-62
2022/08/01 12:42:17;;;;;;;2.90;2.00;;;;;;;;;;5005065;28;20371;-62
2022/08/01 12:44:45;;;;;;;5.47;2.33;;;;;;;;;;4974006;28;20445;-61
2022/08/01 12:47:11;;;;;;;4.65;2.40;;;;;;;;;;4969574;28;20455;-65
2022/08/01 12:49:37;;;;;;;3.08;2.03;;;;;;;;;;4969813;28;20421;-62
2022/08/01 12:52:03;;;;;;;3.53;2.10;;;;;;;;;;4969550;28;20429;-62
2022/08/01 12:54:28;;;;;;;2.78;1.92;;;;;;;;;;4984806;28;20341;-63
2022/08/01 12:56:54;;;;;;;2.35;1.58;;;;;;;;;;4969805;28;20410;-62
2022/08/01 12:59:28;;;;;;;2.28;1.67;;;;;;;;;;4970280;28;20056;-62
2022/08/01 13:01:54;;;;;;;2.88;2.08;;;;;;;;;;4969419;28;20377;-62
2022/08/01 13:04:23;;;;;;;4.32;1.95;;;;;;;;;;4970350;28;20440;-62
2022/08/01 13:06:52;;;;;;;3.35;1.80;;;;;;;;;;4951379;28;20391;-62
2022/08/01 13:09:18;;;;;;;2.03;1.55;;;;;;;;;;4970490;28;20467;-62
2022/08/01 13:11:45;;;;;;;3.10;1.90;;;;;;;;;;4969233;28;20499;-63
2022/08/01 13:14:27;;;;;;;3.08;1.67;;;;;;;;;;4951684;28;20375;-62
2022/08/01 13:16:52;;;;;;;2.65;2.00;;;;;;;;;;4969455;28;20033;-62
2022/08/01 13:19:17;;;;;;;3.35;1.80;;;;;;;;;;4969561;28;20462;-62
2022/08/01 13:21:56;;;;;;;4.95;2.10;;;;;;;;;;4969535;28;20029;-62
2022/08/01 13:24:28;;;;;;;3.97;1.88;;;;;;;;;;4969169;28;20316;-62
2022/08/01 13:26:58;;;;;;;4.57;2.20;;;;;;;;;;4969257;28;20041;-62
2022/08/01 13:29:38;;;;;;;4.10;2.35;;;;;;;;;;4952239;28;20554;-62
2022/08/01 13:32:14;;;;;;;3.05;1.92;;;;;;;;;;4970470;28;20421;-62
2022/08/01 13:34:39;;;;;;;3.35;1.95;;;;;;;;;;4969941;28;20432;-62
2022/08/01 13:37:05;;;;;;;3.53;2.08;;;;;;;;;;4952453;28;20439;-62
2022/08/01 13:39:47;;;;;;;3.40;2.00;;;;;;;;;;4973350;28;20037;-62
2022/08/01 13:42:14;;;;;;;3.17;1.77;;;;;;;;;;4973424;28;20412;-62
2022/08/01 13:44:41;;;;;;;3.20;2.00;;;;;;;;;;4972723;28;20471;-64
2022/08/01 13:47:07;;;;;;;3.58;1.60;;;;;;;;;;4973152;28;20437;-64
2022/08/01 13:49:32;;;;;;;2.65;1.80;;;;;;;;;;4973164;28;20049;-62
2022/08/01 13:51:59;;;;;;;2.78;2.00;;;;;;;;;;4974243;28;20432;-62
2022/08/01 13:54:24;;;;;;;4.07;1.90;;;;;;;;;;4974841;28;20344;-61
2022/08/01 13:56:50;;;;;;;2.55;1.80;;;;;;;;;;4973060;28;20364;-62
2022/08/01 13:59:15;;;;;;;2.33;1.60;;;;;;;;;;4973037;28;20366;-62
2022/08/01 14:01:41;;;;;;;3.92;1.98;;;;;;;;;;4972757;28;20325;-62
2022/08/01 14:04:06;;;;;;;5.00;1.98;;;;;;;;;;4973253;28;20465;-62
2022/08/01 14:06:32;;;;;;;2.40;1.70;;;;;;;;;;4972742;28;20057;-61
2022/08/01 14:08:58;;;;;;;2.80;1.73;;;;;;;;;;4973693;28;20052;-62
2022/08/01 14:11:23;;;;;;;3.20;1.70;;;;;;;;;;4974288;28;20083;-62
2022/08/01 14:13:48;;;;;;;3.35;1.40;;;;;;;;;;4973211;28;20439;-62
2022/08/01 14:16:14;;;;;;;4.25;2.15;;;;;;;;;;4972372;28;20029;-64
2022/08/01 14:18:40;;;;;;;5.05;1.80;;;;;;;;;;4971974;28;20431;-61
2022/08/01 14:21:05;;;;;;;2.80;1.58;;;;;;;;;;4972531;28;20500;-61
2022/08/01 14:23:31;;;;;;;2.75;1.77;;;;;;;;;;4972297;28;20456;-62
2022/08/01 14:25:56;;;;;;;2.70;1.70;;;;;;;;;;4972274;28;20025;-62
2022/08/01 14:28:23;;;;;;;3.83;1.70;;;;;;;;;;4972305;28;20440;-62
2022/08/01 14:30:48;;;;;;;3.15;1.77;;;;;;;;;;4972556;28;20397;-61
2022/08/01 14:33:14;;;;;;;2.30;1.70;;;;;;;;;;4972736;28;20459;-62
2022/08/01 14:35:40;;;;;;;2.45;1.83;;;;;;;;;;4972491;28;20502;-63
2022/08/01 14:38:05;;;;;;;2.42;1.55;;;;;;;;;;4972271;28;20026;-62
2022/08/01 14:40:31;;;;;;;2.50;1.73;;;;;;;;;;4972238;28;20348;-62
2022/08/01 14:42:56;;;;;;;3.22;1.80;;;;;;;;;;4972363;28;20344;-62
2022/08/01 14:45:22;;;;;;;2.08;1.88;;;;;;;;;;4971878;28;20341;-61
2022/08/01 14:47:47;;;;;;;3.40;2.05;;;;;;;;;;4971509;28;20364;-62